createdAt,value
2018-11-03T00:00:21.791Z,1024.70
2018-11-03T00:01:21.794Z,1024.70
2018-11-03T00:02:21.793Z,1024.68
2018-11-03T00:03:21.805Z,1024.65
2018-11-03T00:04:22.016Z,1024.71
2018-11-03T00:05:21.705Z,1024.73
2018-11-03T00:06:21.714Z,1024.74
2018-11-03T00:07:21.737Z,1024.75
2018-11-03T00:08:21.724Z,1024.72
2018-11-03T00:09:21.865Z,1024.73
2018-11-03T00:10:21.737Z,1024.70
2018-11-03T00:11:21.653Z,1024.69
2018-11-03T00:12:21.661Z,1024.76
2018-11-03T00:13:21.672Z,1024.71
2018-11-03T00:14:21.866Z,1024.71
2018-11-03T00:15:21.668Z,1024.70
2018-11-03T00:16:21.677Z,1024.71
2018-11-03T00:17:21.597Z,1024.70
2018-11-03T00:18:21.587Z,1024.69
2018-11-03T00:19:21.692Z,1024.72
2018-11-03T00:20:21.635Z,1024.70
2018-11-03T00:21:21.640Z,1024.69
2018-11-03T00:22:21.605Z,1024.71
2018-11-03T00:23:21.515Z,1024.71
2018-11-03T00:24:21.643Z,1024.74
2018-11-03T00:25:21.534Z,1024.74
2018-11-03T00:26:21.542Z,1024.72
2018-11-03T00:27:21.552Z,1024.75
2018-11-03T00:28:21.644Z,1024.74
2018-11-03T00:29:21.568Z,1024.75
2018-11-03T00:30:21.555Z,1024.80
2018-11-03T00:31:21.561Z,1024.79
2018-11-03T00:32:21.480Z,1024.75
2018-11-03T00:33:21.495Z,1024.76
2018-11-03T00:34:21.481Z,1024.69
2018-11-03T00:35:21.486Z,1024.80
2018-11-03T00:36:21.390Z,1024.80
2018-11-03T00:37:21.398Z,1024.84
2018-11-03T00:38:21.402Z,1024.83
2018-11-03T00:39:21.745Z,1024.82
2018-11-03T00:40:21.454Z,1024.78
2018-11-03T00:41:21.320Z,1024.75
2018-11-03T00:42:21.430Z,1024.73
2018-11-03T00:43:21.645Z,1024.76
2018-11-03T00:44:21.445Z,1024.79
2018-11-03T00:45:21.453Z,1024.79
2018-11-03T00:46:21.249Z,1024.82
2018-11-03T00:47:21.260Z,1024.81
2018-11-03T00:48:21.258Z,1024.83
2018-11-03T00:49:21.366Z,1024.84
2018-11-03T00:50:21.283Z,1024.79
2018-11-03T00:51:21.276Z,1024.82
2018-11-03T00:52:21.285Z,1024.84
2018-11-03T00:53:21.186Z,1024.87
2018-11-03T00:54:21.294Z,1024.90
2018-11-03T00:55:21.227Z,1024.97
2018-11-03T00:56:21.207Z,1024.97
2018-11-03T00:57:21.217Z,1024.98
2018-11-03T00:58:21.220Z,1025.00
2018-11-03T00:59:21.226Z,1025.03
2018-11-03T01:00:21.128Z,1025.09
2018-11-03T01:01:21.138Z,1025.05
2018-11-03T01:02:21.154Z,1025.05
2018-11-03T01:03:21.156Z,1025.06
2018-11-03T01:04:21.156Z,1025.03
2018-11-03T01:05:21.060Z,1025.04
2018-11-03T01:06:21.063Z,1025.00
2018-11-03T01:07:21.069Z,1024.97
2018-11-03T01:08:21.082Z,1024.98
2018-11-03T01:09:21.199Z,1024.90
2018-11-03T01:10:20.987Z,1024.87
2018-11-03T01:11:20.995Z,1024.84
2018-11-03T01:12:21.001Z,1024.82
2018-11-03T01:13:21.006Z,1024.84
2018-11-03T01:14:21.114Z,1024.81
2018-11-03T01:15:21.026Z,1024.81
2018-11-03T01:16:20.927Z,1024.84
2018-11-03T01:17:20.931Z,1024.80
2018-11-03T01:18:20.956Z,1024.82
2018-11-03T01:19:21.045Z,1024.80
2018-11-03T01:20:20.946Z,1024.79
2018-11-03T01:21:20.972Z,1024.83
2018-11-03T01:22:20.857Z,1024.87
2018-11-03T01:23:20.872Z,1024.84
2018-11-03T01:24:20.974Z,1024.85
2018-11-03T01:25:20.879Z,1024.87
2018-11-03T01:26:20.889Z,1024.88
2018-11-03T01:27:20.902Z,1024.85
2018-11-03T01:28:20.795Z,1024.81
2018-11-03T01:29:20.906Z,1024.81
2018-11-03T01:30:20.806Z,1024.83
2018-11-03T01:31:20.812Z,1024.86
2018-11-03T01:32:20.833Z,1024.85
2018-11-03T01:33:20.846Z,1024.86
2018-11-03T01:34:20.729Z,1024.83
2018-11-03T01:35:20.841Z,1024.81
2018-11-03T01:36:20.748Z,1024.76
2018-11-03T01:37:20.755Z,1024.75
2018-11-03T01:38:20.766Z,1024.72
2018-11-03T01:39:20.761Z,1024.72
2018-11-03T01:40:20.772Z,1024.79
2018-11-03T01:41:20.694Z,1024.83
2018-11-03T01:42:20.679Z,1024.84
2018-11-03T01:43:20.684Z,1024.88
2018-11-03T01:44:20.698Z,1024.84
2018-11-03T01:45:20.806Z,1024.84
2018-11-03T01:46:20.602Z,1024.83
2018-11-03T01:47:20.611Z,1024.81
2018-11-03T01:48:20.618Z,1024.83
2018-11-03T01:49:20.624Z,1024.84
2018-11-03T01:50:20.739Z,1024.78
2018-11-03T01:51:20.648Z,1024.75
2018-11-03T01:52:20.540Z,1024.75
2018-11-03T01:53:20.547Z,1024.74
2018-11-03T01:54:20.552Z,1024.77
2018-11-03T01:55:20.666Z,1024.77
2018-11-03T01:56:20.565Z,1024.78
2018-11-03T01:57:20.573Z,1024.81
2018-11-03T01:58:20.496Z,1024.82
2018-11-03T01:59:20.484Z,1024.89
2018-11-03T02:00:20.586Z,1024.90
2018-11-03T02:01:20.503Z,1024.86
2018-11-03T02:02:20.503Z,1024.86
2018-11-03T02:03:20.512Z,1024.85
2018-11-03T02:04:20.432Z,1024.87
2018-11-03T02:05:20.419Z,1024.84
2018-11-03T02:06:20.544Z,1024.86
2018-11-03T02:07:20.429Z,1024.82
2018-11-03T02:08:20.438Z,1024.81
2018-11-03T02:09:20.343Z,1024.86
2018-11-03T02:10:20.357Z,1024.85
2018-11-03T02:11:20.451Z,1024.86
2018-11-03T02:12:20.363Z,1024.90
2018-11-03T02:13:20.360Z,1024.90
2018-11-03T02:14:20.388Z,1024.92
2018-11-03T02:15:20.272Z,1024.92
2018-11-03T02:16:20.385Z,1024.93
2018-11-03T02:17:20.285Z,1024.97
2018-11-03T02:18:20.291Z,1025.02
2018-11-03T02:19:20.297Z,1025.02
2018-11-03T02:20:20.324Z,1025.01
2018-11-03T02:21:20.309Z,1025.08
2018-11-03T02:22:20.212Z,1025.01
2018-11-03T02:23:20.219Z,1025.00
2018-11-03T02:24:20.225Z,1025.02
2018-11-03T02:25:20.233Z,1024.97
2018-11-03T02:26:20.356Z,1025.01
2018-11-03T02:27:20.157Z,1024.98
2018-11-03T02:28:20.148Z,1024.94
2018-11-03T02:29:20.176Z,1025.01
2018-11-03T02:30:20.162Z,1024.93
2018-11-03T02:31:20.168Z,1024.95
2018-11-03T02:32:20.275Z,1024.92
2018-11-03T02:33:20.077Z,1024.88
2018-11-03T02:34:20.099Z,1024.96
2018-11-03T02:35:20.091Z,1024.94
2018-11-03T02:36:20.096Z,1024.94
2018-11-03T02:37:20.207Z,1024.94
2018-11-03T02:38:20.108Z,1024.95
2018-11-03T02:39:20.014Z,1025.00
2018-11-03T02:40:20.030Z,1024.94
2018-11-03T02:41:20.025Z,1024.97
2018-11-03T02:42:20.135Z,1024.94
2018-11-03T02:43:20.039Z,1024.97
2018-11-03T02:44:20.047Z,1024.95
2018-11-03T02:45:19.950Z,1024.99
2018-11-03T02:46:19.967Z,1025.02
2018-11-03T02:47:20.065Z,1025.00
2018-11-03T02:48:19.969Z,1024.97
2018-11-03T02:49:19.974Z,1025.00
2018-11-03T02:50:19.979Z,1024.91
2018-11-03T02:51:19.884Z,1024.87
2018-11-03T02:52:20.021Z,1024.88
2018-11-03T02:53:19.896Z,1024.87
2018-11-03T02:54:19.902Z,1024.82
2018-11-03T02:55:19.909Z,1024.83
2018-11-03T02:56:19.919Z,1024.84
2018-11-03T02:57:19.818Z,1024.84
2018-11-03T02:58:19.928Z,1024.90
2018-11-03T02:59:19.839Z,1024.91
2018-11-03T03:00:19.838Z,1024.93
2018-11-03T03:01:19.845Z,1024.96
2018-11-03T03:02:19.751Z,1024.99
2018-11-03T03:03:19.857Z,1024.99
2018-11-03T03:04:19.762Z,1024.99
2018-11-03T03:05:19.786Z,1024.99
2018-11-03T03:06:19.774Z,1025.01
2018-11-03T03:07:19.780Z,1025.03
2018-11-03T03:08:19.786Z,1025.04
2018-11-03T03:09:19.689Z,1025.03
2018-11-03T03:10:19.697Z,1025.00
2018-11-03T03:11:19.727Z,1024.95
2018-11-03T03:12:19.711Z,1024.94
2018-11-03T03:13:19.819Z,1024.96
2018-11-03T03:14:19.620Z,1024.99
2018-11-03T03:15:19.626Z,1024.95
2018-11-03T03:16:19.640Z,1024.93
2018-11-03T03:17:19.654Z,1024.94
2018-11-03T03:18:19.747Z,1024.92
2018-11-03T03:19:19.651Z,1024.87
2018-11-03T03:20:19.556Z,1024.89
2018-11-03T03:21:19.560Z,1024.91
2018-11-03T03:22:19.567Z,1024.94
2018-11-03T03:23:19.690Z,1024.94
2018-11-03T03:24:19.581Z,1024.94
2018-11-03T03:25:19.586Z,1025.05
2018-11-03T03:26:19.489Z,1024.97
2018-11-03T03:27:19.497Z,1024.98
2018-11-03T03:28:19.605Z,1025.00
2018-11-03T03:29:19.609Z,1024.99
2018-11-03T03:30:19.615Z,1024.97
2018-11-03T03:31:19.523Z,1024.98
2018-11-03T03:32:19.425Z,1024.93
2018-11-03T03:33:19.432Z,1024.95
2018-11-03T03:34:19.541Z,1024.92
2018-11-03T03:35:19.459Z,1024.96
2018-11-03T03:36:19.458Z,1024.93
2018-11-03T03:37:19.461Z,1024.88
2018-11-03T03:38:19.366Z,1024.89
2018-11-03T03:39:19.470Z,1024.90
2018-11-03T03:40:19.376Z,1024.86
2018-11-03T03:41:19.394Z,1024.87
2018-11-03T03:42:19.396Z,1024.86
2018-11-03T03:43:19.392Z,1024.84
2018-11-03T03:44:19.405Z,1024.84
2018-11-03T03:45:19.305Z,1024.85
2018-11-03T03:46:19.314Z,1024.89
2018-11-03T03:47:19.324Z,1024.88
2018-11-03T03:48:19.323Z,1024.89
2018-11-03T03:49:19.329Z,1024.88
2018-11-03T03:50:19.233Z,1024.86
2018-11-03T03:51:19.241Z,1024.85
2018-11-03T03:52:19.245Z,1024.82
2018-11-03T03:53:19.293Z,1024.78
2018-11-03T03:54:19.362Z,1024.80
2018-11-03T03:55:19.171Z,1024.83
2018-11-03T03:56:19.170Z,1024.88
2018-11-03T03:57:19.177Z,1024.79
2018-11-03T03:58:19.182Z,1024.82
2018-11-03T03:59:19.316Z,1024.79
2018-11-03T04:00:19.200Z,1024.82
2018-11-03T04:01:19.097Z,1024.84
2018-11-03T04:02:19.103Z,1024.92
2018-11-03T04:03:19.109Z,1024.96
2018-11-03T04:04:19.115Z,1024.92
2018-11-03T04:05:19.225Z,1024.95
2018-11-03T04:06:19.149Z,1024.97
2018-11-03T04:07:19.648Z,1024.94
2018-11-03T04:08:19.038Z,1025.02
2018-11-03T04:09:19.045Z,1025.05
2018-11-03T04:10:19.153Z,1025.02
2018-11-03T04:11:19.058Z,1025.10
2018-11-03T04:12:19.094Z,1025.01
2018-11-03T04:13:18.969Z,1025.08
2018-11-03T04:14:18.985Z,1025.13
2018-11-03T04:15:19.082Z,1025.09
2018-11-03T04:16:18.987Z,1025.14
2018-11-03T04:17:18.995Z,1025.14
2018-11-03T04:18:19.016Z,1025.16
2018-11-03T04:19:18.906Z,1025.16
2018-11-03T04:20:19.013Z,1025.19
2018-11-03T04:21:18.916Z,1025.16
2018-11-03T04:22:18.925Z,1025.19
2018-11-03T04:23:18.937Z,1025.19
2018-11-03T04:24:18.957Z,1025.17
2018-11-03T04:25:18.945Z,1025.20
2018-11-03T04:26:18.846Z,1025.13
2018-11-03T04:27:18.852Z,1025.13
2018-11-03T04:28:18.865Z,1025.13
2018-11-03T04:29:18.864Z,1025.11
2018-11-03T04:30:19.000Z,1025.20
2018-11-03T04:31:18.776Z,1025.15
2018-11-03T04:32:18.781Z,1025.18
2018-11-03T04:33:18.787Z,1025.17
2018-11-03T04:34:18.793Z,1025.20
2018-11-03T04:35:18.800Z,1025.13
2018-11-03T04:36:18.819Z,1025.11
2018-11-03T04:37:18.711Z,1025.10
2018-11-03T04:38:18.716Z,1025.06
2018-11-03T04:39:18.723Z,1025.11
2018-11-03T04:40:18.728Z,1025.14
2018-11-03T04:41:18.851Z,1025.10
2018-11-03T04:42:18.645Z,1025.08
2018-11-03T04:43:18.653Z,1025.08
2018-11-03T04:44:18.652Z,1025.09
2018-11-03T04:45:18.701Z,1025.09
2018-11-03T04:46:18.768Z,1025.08
2018-11-03T04:47:18.677Z,1025.08
2018-11-03T04:48:18.575Z,1025.08
2018-11-03T04:49:18.592Z,1025.09
2018-11-03T04:50:18.591Z,1025.06
2018-11-03T04:51:18.698Z,1025.06
2018-11-03T04:52:18.604Z,1025.01
2018-11-03T04:53:18.607Z,1025.02
2018-11-03T04:54:18.513Z,1025.01
2018-11-03T04:55:18.688Z,1025.00
2018-11-03T04:56:18.625Z,1025.01
2018-11-03T04:57:18.537Z,1024.98
2018-11-03T04:58:18.535Z,1024.96
2018-11-03T04:59:18.541Z,1024.99
2018-11-03T05:00:18.487Z,1024.97
2018-11-03T05:01:18.567Z,1024.99
2018-11-03T05:02:18.493Z,1025.01
2018-11-03T05:03:18.464Z,1025.05
2018-11-03T05:04:18.472Z,1025.00
2018-11-03T05:05:18.379Z,1025.01
2018-11-03T05:06:18.483Z,1025.01
2018-11-03T05:07:18.400Z,1025.02
2018-11-03T05:08:18.393Z,1025.04
2018-11-03T05:09:18.399Z,1025.02
2018-11-03T05:10:18.485Z,1025.00
2018-11-03T05:11:18.312Z,1024.99
2018-11-03T05:12:18.420Z,1024.99
2018-11-03T05:13:18.341Z,1025.04
2018-11-03T05:14:18.331Z,1025.01
2018-11-03T05:15:18.339Z,1024.99
2018-11-03T05:16:18.343Z,1024.99
2018-11-03T05:17:18.349Z,1024.99
2018-11-03T05:18:18.252Z,1024.96
2018-11-03T05:19:18.269Z,1024.98
2018-11-03T05:20:18.264Z,1024.99
2018-11-03T05:21:18.319Z,1024.99
2018-11-03T05:22:18.381Z,1025.00
2018-11-03T05:23:18.181Z,1025.05
2018-11-03T05:24:18.188Z,1025.14
2018-11-03T05:25:18.207Z,1025.12
2018-11-03T05:26:18.204Z,1025.11
2018-11-03T05:27:18.310Z,1025.12
2018-11-03T05:28:18.213Z,1025.08
2018-11-03T05:29:18.116Z,1025.09
2018-11-03T05:30:18.123Z,1025.09
2018-11-03T05:31:18.226Z,1025.07
2018-11-03T05:32:18.173Z,1025.11
2018-11-03T05:33:18.244Z,1025.15
2018-11-03T05:34:18.148Z,1025.14
2018-11-03T05:35:18.052Z,1025.09
2018-11-03T05:36:18.059Z,1025.05
2018-11-03T05:37:18.065Z,1025.05
2018-11-03T05:38:18.192Z,1025.06
2018-11-03T05:39:18.078Z,1025.04
2018-11-03T05:40:17.983Z,1025.07
2018-11-03T05:41:17.988Z,1025.07
2018-11-03T05:42:17.998Z,1025.09
2018-11-03T05:43:18.106Z,1025.11
2018-11-03T05:44:18.018Z,1025.15
2018-11-03T05:45:18.017Z,1025.17
2018-11-03T05:46:17.929Z,1025.18
2018-11-03T05:47:17.930Z,1025.18
2018-11-03T05:48:18.036Z,1025.17
2018-11-03T05:49:17.942Z,1025.22
2018-11-03T05:50:17.941Z,1025.19
2018-11-03T05:51:17.948Z,1025.17
2018-11-03T05:52:17.853Z,1025.19
2018-11-03T05:53:17.982Z,1025.19
2018-11-03T05:54:17.870Z,1025.17
2018-11-03T05:55:17.985Z,1025.19
2018-11-03T05:56:17.879Z,1025.19
2018-11-03T05:57:17.886Z,1025.23
2018-11-03T05:58:17.913Z,1025.21
2018-11-03T05:59:17.794Z,1025.26
2018-11-03T06:00:17.800Z,1025.26
2018-11-03T06:01:17.806Z,1025.28
2018-11-03T06:02:17.813Z,1025.29
2018-11-03T06:03:17.926Z,1025.23
2018-11-03T06:04:17.742Z,1025.29
2018-11-03T06:05:17.730Z,1025.27
2018-11-03T06:06:17.736Z,1025.27
2018-11-03T06:07:17.745Z,1025.32
2018-11-03T06:08:17.851Z,1025.36
2018-11-03T06:09:17.656Z,1025.36
2018-11-03T06:10:17.667Z,1025.38
2018-11-03T06:11:17.676Z,1025.42
2018-11-03T06:12:17.673Z,1025.36
2018-11-03T06:13:17.781Z,1025.35
2018-11-03T06:14:17.688Z,1025.39
2018-11-03T06:15:17.596Z,1025.39
2018-11-03T06:16:17.595Z,1025.39
2018-11-03T06:17:17.611Z,1025.42
2018-11-03T06:18:17.822Z,1025.42
2018-11-03T06:19:17.613Z,1025.38
2018-11-03T06:20:17.640Z,1025.42
2018-11-03T06:21:17.530Z,1025.42
2018-11-03T06:22:17.588Z,1025.44
2018-11-03T06:23:17.549Z,1025.42
2018-11-03T06:24:17.655Z,1025.43
2018-11-03T06:25:17.550Z,1025.37
2018-11-03T06:26:19.357Z,1025.38
2018-11-03T06:27:17.467Z,1025.38
2018-11-03T06:28:17.468Z,1025.37
2018-11-03T06:29:17.574Z,1025.38
2018-11-03T06:30:17.495Z,1025.41
2018-11-03T06:31:17.484Z,1025.46
2018-11-03T06:32:17.490Z,1025.47
2018-11-03T06:33:17.416Z,1025.49
2018-11-03T06:34:17.504Z,1025.50
2018-11-03T06:35:17.466Z,1025.45
2018-11-03T06:36:17.414Z,1025.53
2018-11-03T06:37:17.423Z,1025.60
2018-11-03T06:38:17.333Z,1025.57
2018-11-03T06:39:17.434Z,1025.62
2018-11-03T06:40:17.337Z,1025.62
2018-11-03T06:41:17.342Z,1025.57
2018-11-03T06:42:17.352Z,1025.58
2018-11-03T06:43:17.357Z,1025.58
2018-11-03T06:44:17.383Z,1025.58
2018-11-03T06:45:17.268Z,1025.58
2018-11-03T06:46:17.272Z,1025.59
2018-11-03T06:47:17.407Z,1025.61
2018-11-03T06:48:17.290Z,1025.62
2018-11-03T06:49:17.393Z,1025.61
2018-11-03T06:50:17.204Z,1025.65
2018-11-03T06:51:17.202Z,1025.64
2018-11-03T06:52:17.300Z,1025.67
2018-11-03T06:53:17.213Z,1025.66
2018-11-03T06:54:17.323Z,1025.68
2018-11-03T06:55:17.228Z,1025.75
2018-11-03T06:56:17.136Z,1025.79
2018-11-03T06:57:17.142Z,1025.75
2018-11-03T06:58:17.142Z,1025.71
2018-11-03T06:59:17.172Z,1025.69
2018-11-03T07:00:17.259Z,1025.69
2018-11-03T07:01:17.064Z,1025.64
2018-11-03T07:02:17.069Z,1025.60
2018-11-03T07:03:17.072Z,1025.67
2018-11-03T07:04:17.079Z,1025.71
2018-11-03T07:05:17.293Z,1025.72
2018-11-03T07:06:17.097Z,1025.76
2018-11-03T07:07:16.997Z,1025.75
2018-11-03T07:08:17.001Z,1025.78
2018-11-03T07:09:17.011Z,1025.76
2018-11-03T07:10:17.140Z,1025.77
2018-11-03T07:11:17.060Z,1025.77
2018-11-03T07:12:17.120Z,1025.73
2018-11-03T07:13:17.145Z,1025.75
2018-11-03T07:14:16.945Z,1025.72
2018-11-03T07:15:17.050Z,1025.75
2018-11-03T07:16:16.963Z,1025.70
2018-11-03T07:17:16.960Z,1025.73
2018-11-03T07:18:16.981Z,1025.67
2018-11-03T07:19:16.867Z,1025.68
2018-11-03T07:20:16.982Z,1025.66
2018-11-03T07:21:16.880Z,1025.63
2018-11-03T07:22:24.464Z,1025.63
2018-11-03T07:23:16.895Z,1025.63
2018-11-03T07:24:16.912Z,1025.60
2018-11-03T07:25:16.903Z,1025.59
2018-11-03T07:26:16.810Z,1025.66
2018-11-03T07:27:16.870Z,1025.66
2018-11-03T07:28:16.820Z,1025.60
2018-11-03T07:29:16.827Z,1025.65
2018-11-03T07:30:16.841Z,1025.63
2018-11-03T07:31:16.840Z,1025.65
2018-11-03T07:32:17.167Z,1025.61
2018-11-03T07:33:16.756Z,1025.60
2018-11-03T07:34:16.758Z,1025.60
2018-11-03T07:35:16.772Z,1025.61
2018-11-03T07:36:16.776Z,1025.59
2018-11-03T07:37:16.677Z,1025.65
2018-11-03T07:38:16.681Z,1025.67
2018-11-03T07:39:16.696Z,1025.62
2018-11-03T07:40:16.709Z,1025.65
2018-11-03T07:41:16.845Z,1025.63
2018-11-03T07:42:16.601Z,1025.56
2018-11-03T07:43:16.607Z,1025.53
2018-11-03T07:44:16.635Z,1025.58
2018-11-03T07:45:16.628Z,1025.53
2018-11-03T07:46:16.729Z,1025.56
2018-11-03T07:47:16.633Z,1025.51
2018-11-03T07:48:16.678Z,1025.52
2018-11-03T07:49:16.877Z,1025.54
2018-11-03T07:50:17.573Z,1025.51
2018-11-03T07:51:16.663Z,1025.52
2018-11-03T07:52:16.562Z,1025.51
2018-11-03T07:53:16.569Z,1025.55
2018-11-03T07:54:16.505Z,1025.54
2018-11-03T07:55:16.502Z,1025.58
2018-11-03T07:56:16.588Z,1025.62
2018-11-03T07:57:16.492Z,1025.61
2018-11-03T07:58:16.532Z,1025.59
2018-11-03T08:00:27.312Z,1025.56
2018-11-03T08:01:26.970Z,1025.56
2018-11-03T08:02:26.868Z,1025.50
2018-11-03T08:03:26.773Z,1025.50
2018-11-03T08:04:26.811Z,1025.53
2018-11-03T08:05:26.916Z,1025.54
2018-11-03T08:06:26.969Z,1025.49
2018-11-03T08:07:26.816Z,1025.46
2018-11-03T08:08:26.830Z,1025.49
2018-11-03T08:09:26.706Z,1025.56
2018-11-03T08:10:26.713Z,1025.56
2018-11-03T08:11:26.840Z,1025.56
2018-11-03T08:12:26.757Z,1025.44
2018-11-03T08:13:26.730Z,1025.47
2018-11-03T08:14:26.739Z,1025.44
2018-11-03T08:15:26.715Z,1025.34
2018-11-03T08:16:26.759Z,1025.34
2018-11-03T08:17:26.660Z,1025.32
2018-11-03T08:18:27.452Z,1025.37
2018-11-03T08:19:26.718Z,1025.32
2018-11-03T08:20:26.683Z,1025.34
2018-11-03T08:21:26.942Z,1025.28
2018-11-03T08:24:15.491Z,1025.17
2018-11-03T08:27:52.540Z,1025.15
2018-11-03T08:28:52.048Z,1025.17
2018-11-03T08:29:52.304Z,1025.15
2018-11-03T08:30:52.039Z,1025.10
2018-11-03T08:31:52.119Z,1025.18
2018-11-03T08:32:51.965Z,1025.13
2018-11-03T08:33:52.000Z,1025.13
2018-11-03T08:34:51.992Z,1025.08
2018-11-03T08:35:51.979Z,1025.04
2018-11-03T08:36:51.899Z,1025.01
2018-11-03T08:39:01.241Z,1025.02
2018-11-03T08:44:30.874Z,1025.06
2018-11-03T08:45:30.516Z,1025.10
2018-11-03T08:46:30.946Z,1025.14
2018-11-03T08:47:30.564Z,1025.15
2018-11-03T08:48:33.039Z,1025.20
2018-11-03T08:55:51.876Z,1025.18
2018-11-03T08:57:04.371Z,1025.21
2018-11-03T08:59:00.976Z,1025.21
2018-11-03T09:01:12.241Z,1025.18
2018-11-03T09:03:23.788Z,1025.16
2018-11-03T09:04:23.875Z,1025.14
2018-11-03T09:08:13.152Z,1025.23
2018-11-03T09:10:40.377Z,1025.28
2018-11-03T09:11:40.233Z,1025.25
2018-11-03T09:12:40.049Z,1025.23
2018-11-03T09:13:39.900Z,1025.24
2018-11-03T09:14:39.856Z,1025.25
2018-11-03T09:15:39.749Z,1025.21
2018-11-03T09:16:39.742Z,1025.26
2018-11-03T09:17:39.776Z,1025.19
2018-11-03T09:18:39.854Z,1025.17
2018-11-03T09:19:39.654Z,1025.20
2018-11-03T09:20:39.663Z,1025.22
2018-11-03T09:21:39.722Z,1025.17
2018-11-03T09:22:39.780Z,1025.16
2018-11-03T09:23:39.799Z,1025.11
2018-11-03T09:24:39.694Z,1025.11
2018-11-03T09:25:39.635Z,1025.14
2018-11-03T09:26:39.603Z,1025.15
2018-11-03T09:27:39.598Z,1025.09
2018-11-03T09:28:39.705Z,1025.11
2018-11-03T09:29:39.633Z,1025.12
2018-11-03T09:30:39.681Z,1025.11
2018-11-03T09:31:39.531Z,1025.09
2018-11-03T09:32:39.538Z,1025.07
2018-11-03T09:33:39.754Z,1025.03
2018-11-03T09:34:39.654Z,1025.05
2018-11-03T09:35:39.558Z,1025.02
2018-11-03T09:36:39.568Z,1025.01
2018-11-03T09:37:39.465Z,1025.03
2018-11-03T09:38:39.642Z,1025.04
2018-11-03T09:41:11.275Z,1024.97
2018-11-03T09:42:29.684Z,1024.99
2018-11-03T09:47:34.950Z,1025.00
2018-11-03T09:48:33.893Z,1024.98
2018-11-03T09:50:50.677Z,1025.00
2018-11-03T09:51:50.130Z,1024.92
2018-11-03T09:52:49.829Z,1024.87
2018-11-03T09:53:52.211Z,1024.90
2018-11-03T09:54:50.934Z,1024.92
2018-11-03T09:55:49.841Z,1024.93
2018-11-03T09:56:49.957Z,1024.89
2018-11-03T09:57:49.825Z,1024.89
2018-11-03T09:58:49.779Z,1024.94
2018-11-03T09:59:49.872Z,1024.93
2018-11-03T10:00:49.743Z,1024.95
2018-11-03T10:01:49.770Z,1024.94
2018-11-03T10:02:49.763Z,1024.92
2018-11-03T10:03:49.775Z,1024.89
2018-11-03T10:04:49.761Z,1024.85
2018-11-03T10:05:49.667Z,1024.85
2018-11-03T10:06:49.677Z,1024.81
2018-11-03T10:07:49.784Z,1024.78
2018-11-03T10:08:49.697Z,1024.80
2018-11-03T10:09:49.802Z,1024.73
2018-11-03T10:10:49.634Z,1024.72
2018-11-03T10:11:52.514Z,1024.74
2018-11-03T10:15:33.773Z,1024.70
2018-11-03T10:16:33.206Z,1024.69
2018-11-03T10:17:33.089Z,1024.70
2018-11-03T10:18:33.026Z,1024.63
2018-11-03T10:19:33.134Z,1024.64
2018-11-03T10:20:33.324Z,1024.66
2018-11-03T10:21:32.874Z,1024.66
2018-11-03T10:22:33.003Z,1024.65
2018-11-03T10:23:32.944Z,1024.65
2018-11-03T10:24:32.908Z,1024.63
2018-11-03T10:25:32.922Z,1024.61
2018-11-03T10:26:32.857Z,1024.62
2018-11-03T10:27:32.827Z,1024.59
2018-11-03T10:28:32.823Z,1024.58
2018-11-03T10:29:33.343Z,1024.52
2018-11-03T10:30:33.764Z,1024.49
2018-11-03T10:31:32.749Z,1024.53
2018-11-03T10:32:32.849Z,1024.45
2018-11-03T10:33:32.845Z,1024.51
2018-11-03T10:34:33.188Z,1024.47
2018-11-03T10:35:33.810Z,1024.41
2018-11-03T10:36:32.776Z,1024.45
2018-11-03T10:37:32.892Z,1024.45
2018-11-03T10:38:33.189Z,1024.41
2018-11-03T10:39:32.988Z,1024.39
2018-11-03T10:40:34.562Z,1024.40
2018-11-03T10:41:33.348Z,1024.37
2018-11-03T10:42:32.710Z,1024.33
2018-11-03T10:43:32.623Z,1024.36
2018-11-03T10:44:33.080Z,1024.35
2018-11-03T10:45:33.240Z,1024.30
2018-11-03T10:46:33.884Z,1024.31
2018-11-03T10:47:33.350Z,1024.31
2018-11-03T10:48:32.576Z,1024.28
2018-11-03T10:49:32.601Z,1024.27
2018-11-03T10:50:33.292Z,1024.27
2018-11-03T10:51:32.560Z,1024.25
2018-11-03T10:52:32.821Z,1024.32
2018-11-03T10:53:32.621Z,1024.31
2018-11-03T10:54:32.608Z,1024.29
2018-11-03T10:55:32.584Z,1024.29
2018-11-03T10:56:32.635Z,1024.34
2018-11-03T10:57:32.506Z,1024.28
2018-11-03T10:58:32.496Z,1024.26
2018-11-03T10:59:32.504Z,1024.25
2018-11-03T11:00:32.845Z,1024.25
2018-11-03T11:01:32.434Z,1024.25
2018-11-03T11:02:32.427Z,1024.23
2018-11-03T11:03:32.500Z,1024.25
2018-11-03T11:04:32.439Z,1024.21
2018-11-03T11:05:32.454Z,1024.29
2018-11-03T11:06:32.546Z,1024.23
2018-11-03T11:07:32.349Z,1024.27
2018-11-03T11:08:32.354Z,1024.21
2018-11-03T11:09:32.376Z,1024.20
2018-11-03T11:10:32.382Z,1024.17
2018-11-03T11:11:32.475Z,1024.17
2018-11-03T11:12:32.289Z,1024.18
2018-11-03T11:13:32.366Z,1024.12
2018-11-03T11:14:32.293Z,1024.15
2018-11-03T11:15:32.301Z,1024.11
2018-11-03T11:16:32.610Z,1024.11
2018-11-03T11:17:32.341Z,1023.99
2018-11-03T11:18:32.216Z,1024.01
2018-11-03T11:19:32.226Z,1024.02
2018-11-03T11:20:32.236Z,1023.99
2018-11-03T11:21:32.476Z,1024.02
2018-11-03T11:22:32.256Z,1023.94
2018-11-03T11:23:32.326Z,1023.91
2018-11-03T11:24:32.191Z,1023.90
2018-11-03T11:25:32.213Z,1023.85
2018-11-03T11:26:32.267Z,1023.84
2018-11-03T11:27:32.192Z,1023.83
2018-11-03T11:28:32.192Z,1023.87
2018-11-03T11:29:32.185Z,1023.82
2018-11-03T11:30:32.194Z,1023.84
2018-11-03T11:31:32.274Z,1023.85
2018-11-03T11:32:32.251Z,1023.81
2018-11-03T11:33:32.112Z,1023.82
2018-11-03T11:34:32.120Z,1023.84
2018-11-03T11:35:32.128Z,1023.80
2018-11-03T11:36:32.033Z,1023.79
2018-11-03T11:37:32.224Z,1023.78
2018-11-03T11:38:32.100Z,1023.79
2018-11-03T11:39:32.041Z,1023.83
2018-11-03T11:40:32.044Z,1023.78
2018-11-03T11:41:32.055Z,1023.81
2018-11-03T11:42:32.057Z,1023.74
2018-11-03T11:43:31.999Z,1023.77
2018-11-03T11:44:31.974Z,1023.73
2018-11-03T11:45:32.003Z,1023.70
2018-11-03T11:46:31.991Z,1023.74
2018-11-03T11:47:32.102Z,1023.68
2018-11-03T11:48:31.894Z,1023.65
2018-11-03T11:49:31.904Z,1023.64
2018-11-03T11:50:31.902Z,1023.61
2018-11-03T11:51:31.905Z,1023.62
2018-11-03T11:52:32.025Z,1023.57
2018-11-03T11:53:31.959Z,1023.57
2018-11-03T11:54:31.824Z,1023.56
2018-11-03T11:55:31.833Z,1023.53
2018-11-03T11:56:31.863Z,1023.49
2018-11-03T11:57:31.844Z,1023.44
2018-11-03T11:58:31.958Z,1023.44
2018-11-03T11:59:31.859Z,1023.38
2018-11-03T12:00:31.833Z,1023.39
2018-11-03T12:03:09.762Z,1023.42
2018-11-03T12:04:09.585Z,1023.40
2018-11-03T12:05:09.386Z,1023.43
2018-11-03T12:06:09.443Z,1023.44
2018-11-03T12:07:09.390Z,1023.39
2018-11-03T12:08:09.512Z,1023.42
2018-11-03T12:09:09.405Z,1023.39
2018-11-03T12:10:09.529Z,1023.42
2018-11-03T12:11:09.300Z,1023.41
2018-11-03T12:12:09.311Z,1023.43
2018-11-03T12:13:09.333Z,1023.43
2018-11-03T12:14:09.443Z,1023.44
2018-11-03T12:15:09.434Z,1023.42
2018-11-03T12:16:10.385Z,1023.43
2018-11-03T12:17:09.237Z,1023.40
2018-11-03T12:18:09.252Z,1023.44
2018-11-03T12:19:09.366Z,1023.42
2018-11-03T12:20:09.274Z,1023.40
2018-11-03T12:21:09.266Z,1023.42
2018-11-03T12:22:09.274Z,1023.44
2018-11-03T12:23:09.176Z,1023.46
2018-11-03T12:24:09.293Z,1023.42
2018-11-03T12:25:09.190Z,1023.40
2018-11-03T12:26:09.196Z,1023.41
2018-11-03T12:27:09.207Z,1023.39
2018-11-03T12:28:09.206Z,1023.34
2018-11-03T12:29:09.318Z,1023.33
2018-11-03T12:30:09.125Z,1023.31
2018-11-03T12:31:09.132Z,1023.29
2018-11-03T12:32:09.132Z,1023.24
2018-11-03T12:33:09.142Z,1023.28
2018-11-03T12:34:09.246Z,1023.27
2018-11-03T12:35:09.053Z,1023.27
2018-11-03T12:36:09.058Z,1023.21
2018-11-03T12:37:09.059Z,1023.24
2018-11-03T12:38:09.054Z,1023.19
2018-11-03T12:39:09.079Z,1023.18
2018-11-03T12:40:09.179Z,1023.23
2018-11-03T12:41:09.033Z,1023.24
2018-11-03T12:42:09.002Z,1023.23